createdAt,value
2023-02-21T00:00:17.140Z,8.79
2023-02-21T00:01:17.156Z,8.69
2023-02-21T00:02:18.184Z,8.71
2023-02-21T00:03:17.110Z,8.81
2023-02-21T00:04:17.129Z,8.76
2023-02-21T00:05:17.135Z,8.84
2023-02-21T00:06:17.173Z,8.89
2023-02-21T00:07:17.100Z,8.73
2023-02-21T00:08:17.084Z,8.79
2023-02-21T00:09:17.071Z,8.74
2023-02-21T00:10:17.083Z,8.76
2023-02-21T00:11:17.115Z,8.70
2023-02-21T00:12:17.041Z,8.64
2023-02-21T00:13:17.060Z,8.66
2023-02-21T00:14:17.049Z,8.67
2023-02-21T00:15:17.046Z,8.71
2023-02-21T00:16:17.091Z,8.66
2023-02-21T00:17:17.024Z,8.74
2023-02-21T00:18:17.003Z,8.74
2023-02-21T00:19:16.999Z,8.70
2023-02-21T00:20:18.486Z,8.71
2023-02-21T00:21:17.988Z,8.66
2023-02-21T00:22:16.987Z,8.66
2023-02-21T00:23:16.982Z,8.64
2023-02-21T00:24:16.969Z,8.73
2023-02-21T00:25:16.986Z,8.61
2023-02-21T00:26:16.963Z,8.58
2023-02-21T00:27:16.948Z,8.60
2023-02-21T00:28:16.938Z,8.60
2023-02-21T00:29:16.926Z,8.73
2023-02-21T00:30:18.002Z,8.61
2023-02-21T00:31:17.223Z,8.69
2023-02-21T00:32:16.985Z,8.61
2023-02-21T00:33:16.919Z,8.53
2023-02-21T00:34:16.919Z,8.52
2023-02-21T00:35:16.921Z,8.58
2023-02-21T00:36:16.889Z,8.63
2023-02-21T00:37:16.892Z,8.61
2023-02-21T00:38:16.880Z,8.55
2023-02-21T00:39:16.910Z,8.52
2023-02-21T00:40:16.912Z,8.52
2023-02-21T00:41:17.163Z,8.52
2023-02-21T00:42:16.867Z,8.51
2023-02-21T00:43:16.845Z,8.46
2023-02-21T00:44:16.840Z,8.53
2023-02-21T00:45:16.853Z,8.52
2023-02-21T00:46:16.910Z,8.55
2023-02-21T00:47:16.821Z,8.49
2023-02-21T00:48:16.812Z,8.55
2023-02-21T00:49:16.853Z,8.58
2023-02-21T00:50:16.798Z,8.56
2023-02-21T00:51:17.068Z,8.46
2023-02-21T00:52:16.811Z,8.48
2023-02-21T00:53:16.777Z,8.44
2023-02-21T00:54:16.766Z,8.36
2023-02-21T00:55:16.791Z,8.38
2023-02-21T00:56:16.782Z,8.34
2023-02-21T00:57:16.753Z,8.37
2023-02-21T00:58:16.732Z,8.36
2023-02-21T00:59:16.741Z,8.34
2023-02-21T01:00:16.732Z,8.51
2023-02-21T01:01:17.111Z,8.44
2023-02-21T01:02:16.696Z,8.31
2023-02-21T01:03:16.699Z,8.41
2023-02-21T01:04:16.756Z,8.51
2023-02-21T01:05:16.693Z,8.45
2023-02-21T01:06:16.689Z,8.36
2023-02-21T01:07:16.670Z,8.52
2023-02-21T01:08:16.668Z,8.44
2023-02-21T01:09:16.654Z,8.52
2023-02-21T01:10:16.663Z,8.46
2023-02-21T01:11:16.656Z,8.51
2023-02-21T01:12:16.633Z,8.42
2023-02-21T01:13:16.627Z,8.46
2023-02-21T01:14:16.633Z,8.48
2023-02-21T01:15:17.633Z,8.45
2023-02-21T01:16:16.606Z,8.45
2023-02-21T01:17:16.614Z,8.45
2023-02-21T01:18:16.606Z,8.41
2023-02-21T01:19:16.623Z,8.38
2023-02-21T01:20:16.622Z,8.38
2023-02-21T01:21:17.572Z,8.33
2023-02-21T01:22:16.572Z,8.36
2023-02-21T01:23:16.587Z,8.41
2023-02-21T01:24:16.552Z,8.30
2023-02-21T01:25:16.558Z,8.36
2023-02-21T01:26:16.550Z,8.33
2023-02-21T01:27:16.526Z,8.33
2023-02-21T01:28:16.544Z,8.31
2023-02-21T01:29:16.522Z,8.37
2023-02-21T01:30:16.585Z,8.33
2023-02-21T01:31:16.897Z,8.31
2023-02-21T01:32:16.503Z,8.31
2023-02-21T01:33:16.519Z,8.28
2023-02-21T01:34:16.503Z,8.42
2023-02-21T01:35:16.561Z,8.45
2023-02-21T01:36:16.478Z,8.42
2023-02-21T01:37:16.480Z,8.44
2023-02-21T01:38:16.464Z,8.33
2023-02-21T01:39:16.451Z,8.28
2023-02-21T01:40:16.737Z,8.36
2023-02-21T01:41:16.697Z,8.34
2023-02-21T01:42:16.427Z,8.36
2023-02-21T01:43:16.429Z,8.36
2023-02-21T01:44:16.418Z,8.33
2023-02-21T01:45:16.435Z,8.37
2023-02-21T01:46:16.396Z,8.30
2023-02-21T01:47:16.392Z,8.31
2023-02-21T01:48:16.376Z,8.41
2023-02-21T01:49:16.365Z,8.33
2023-02-21T01:50:16.398Z,8.30
2023-02-21T01:51:16.547Z,8.31
2023-02-21T01:52:16.398Z,8.31
2023-02-21T01:53:16.338Z,8.38
2023-02-21T01:54:16.348Z,8.31
2023-02-21T01:55:16.333Z,8.33
2023-02-21T01:56:16.325Z,8.26
2023-02-21T01:57:16.325Z,8.37
2023-02-21T01:58:16.343Z,8.33
2023-02-21T01:59:16.292Z,8.33
2023-02-21T02:00:16.283Z,8.31
2023-02-21T02:01:16.679Z,8.24
2023-02-21T02:02:16.322Z,8.31
2023-02-21T02:03:16.300Z,8.28
2023-02-21T02:04:16.290Z,8.27
2023-02-21T02:05:16.261Z,8.24
2023-02-21T02:06:16.273Z,8.28
2023-02-21T02:07:16.251Z,8.19
2023-02-21T02:08:16.256Z,8.27
2023-02-21T02:09:16.230Z,8.24
2023-02-21T02:10:16.238Z,8.13
2023-02-21T02:11:16.535Z,8.31
2023-02-21T02:12:16.209Z,8.28
2023-02-21T02:13:16.199Z,8.28
2023-02-21T02:14:16.214Z,8.34
2023-02-21T02:15:16.248Z,8.33
2023-02-21T02:16:16.324Z,8.37
2023-02-21T02:17:16.752Z,8.31
2023-02-21T02:18:17.182Z,8.45
2023-02-21T02:19:16.208Z,8.33
2023-02-21T02:20:16.207Z,8.36
2023-02-21T02:21:16.486Z,8.30
2023-02-21T02:22:16.221Z,8.34
2023-02-21T02:23:16.158Z,8.28
2023-02-21T02:24:16.150Z,8.37
2023-02-21T02:25:16.162Z,8.27
2023-02-21T02:26:16.198Z,8.30
2023-02-21T02:27:16.151Z,8.30
2023-02-21T02:28:16.115Z,8.36
2023-02-21T02:29:16.152Z,8.27
2023-02-21T02:30:16.125Z,8.27
2023-02-21T02:31:16.526Z,8.33
2023-02-21T02:32:16.118Z,8.30
2023-02-21T02:33:16.089Z,8.37
2023-02-21T02:34:16.060Z,8.19
2023-02-21T02:35:16.071Z,8.13
2023-02-21T02:36:16.087Z,8.23
2023-02-21T02:37:16.045Z,8.20
2023-02-21T02:38:16.039Z,8.16
2023-02-21T02:39:16.078Z,8.26
2023-02-21T02:40:16.072Z,8.27
2023-02-21T02:41:16.310Z,8.20
2023-02-21T02:42:16.017Z,8.24
2023-02-21T02:43:16.019Z,8.18
2023-02-21T02:44:16.012Z,8.15
2023-02-21T02:45:16.008Z,8.26
2023-02-21T02:46:16.044Z,8.15
2023-02-21T02:47:15.969Z,8.13
2023-02-21T02:48:16.011Z,8.18
2023-02-21T02:49:15.966Z,8.23
2023-02-21T02:50:15.966Z,8.20
2023-02-21T02:51:16.356Z,8.20
2023-02-21T02:52:15.946Z,8.24
2023-02-21T02:53:15.956Z,8.24
2023-02-21T02:54:15.951Z,8.26
2023-02-21T02:55:15.928Z,8.27
2023-02-21T02:56:15.934Z,8.20
2023-02-21T02:57:15.919Z,8.10
2023-02-21T02:58:15.920Z,8.19
2023-02-21T02:59:15.895Z,8.23
2023-02-21T03:00:15.905Z,8.16
2023-02-21T03:01:16.204Z,8.13
2023-02-21T03:02:15.896Z,8.20
2023-02-21T03:03:15.882Z,8.15
2023-02-21T03:04:15.860Z,8.23
2023-02-21T03:05:15.868Z,8.23
2023-02-21T03:06:15.872Z,8.19
2023-02-21T03:07:15.846Z,8.20
2023-02-21T03:08:15.843Z,8.28
2023-02-21T03:09:15.822Z,8.31
2023-02-21T03:10:15.824Z,8.30
2023-02-21T03:11:16.186Z,8.28
2023-02-21T03:12:15.807Z,8.19
2023-02-21T03:13:15.804Z,8.23
2023-02-21T03:14:15.818Z,8.16
2023-02-21T03:15:15.791Z,8.18
2023-02-21T03:16:15.824Z,8.13
2023-02-21T03:17:15.778Z,8.26
2023-02-21T03:18:15.787Z,8.34
2023-02-21T03:19:15.752Z,8.16
2023-02-21T03:20:15.744Z,8.18
2023-02-21T03:21:16.063Z,8.27
2023-02-21T03:22:15.740Z,8.18
2023-02-21T03:23:15.731Z,8.31
2023-02-21T03:24:15.744Z,8.28
2023-02-21T03:25:15.719Z,8.16
2023-02-21T03:26:16.801Z,8.27
2023-02-21T03:27:15.754Z,8.34
2023-02-21T03:28:15.703Z,8.33
2023-02-21T03:29:15.690Z,8.20
2023-02-21T03:30:15.755Z,8.24
2023-02-21T03:31:16.127Z,8.27
2023-02-21T03:32:15.714Z,8.34
2023-02-21T03:33:15.669Z,8.27
2023-02-21T03:34:15.711Z,8.33
2023-02-21T03:35:15.696Z,8.33
2023-02-21T03:36:15.648Z,8.33
2023-02-21T03:37:15.639Z,8.26
2023-02-21T03:38:15.670Z,8.23
2023-02-21T03:39:15.629Z,8.28
2023-02-21T03:40:15.685Z,8.26
2023-02-21T03:41:16.044Z,8.33
2023-02-21T03:42:15.619Z,8.26
2023-02-21T03:43:15.633Z,8.37
2023-02-21T03:44:15.600Z,8.31
2023-02-21T03:45:15.601Z,8.27
2023-02-21T03:46:15.665Z,8.24
2023-02-21T03:47:15.590Z,8.34
2023-02-21T03:48:22.934Z,8.24
2023-02-21T03:49:17.585Z,8.31
2023-02-21T03:50:15.566Z,8.34
2023-02-21T03:51:15.826Z,8.26
2023-02-21T03:52:15.575Z,8.23
2023-02-21T03:53:15.568Z,8.18
2023-02-21T03:54:15.549Z,8.18
2023-02-21T03:55:15.551Z,8.20
2023-02-21T03:56:15.563Z,8.08
2023-02-21T03:57:15.517Z,8.03
2023-02-21T03:58:15.505Z,8.16
2023-02-21T03:59:15.538Z,7.97
2023-02-21T04:00:15.498Z,7.93
2023-02-21T04:01:15.887Z,8.01
2023-02-21T04:02:15.546Z,7.98
2023-02-21T04:03:15.488Z,7.95
2023-02-21T04:04:15.464Z,7.88
2023-02-21T04:05:15.473Z,7.93
2023-02-21T04:06:16.458Z,7.93
2023-02-21T04:07:15.452Z,7.91
2023-02-21T04:08:15.492Z,7.77
2023-02-21T04:09:15.464Z,7.82
2023-02-21T04:10:15.465Z,8.01
2023-02-21T04:11:15.893Z,7.82
2023-02-21T04:12:15.421Z,7.87
2023-02-21T04:13:15.423Z,7.83
2023-02-21T04:14:15.408Z,7.75
2023-02-21T04:15:15.390Z,7.82
2023-02-21T04:16:15.459Z,7.91
2023-02-21T04:17:15.386Z,7.97
2023-02-21T04:18:15.369Z,7.88
2023-02-21T04:19:15.371Z,7.95
2023-02-21T04:20:15.430Z,8.05
2023-02-21T04:21:15.785Z,8.03
2023-02-21T04:22:15.352Z,8.06
2023-02-21T04:23:15.357Z,8.09
2023-02-21T04:24:15.348Z,8.08
2023-02-21T04:25:15.360Z,8.09
2023-02-21T04:26:15.337Z,8.00
2023-02-21T04:27:15.337Z,8.06
2023-02-21T04:28:15.332Z,8.08
2023-02-21T04:29:15.336Z,8.01
2023-02-21T04:30:15.351Z,8.00
2023-02-21T04:31:15.643Z,8.06
2023-02-21T04:32:15.374Z,8.10
2023-02-21T04:33:15.280Z,8.08
2023-02-21T04:34:15.279Z,8.13
2023-02-21T04:35:15.267Z,8.08
2023-02-21T04:36:16.307Z,8.06
2023-02-21T04:37:15.244Z,8.06
2023-02-21T04:38:15.251Z,8.06
2023-02-21T04:39:15.260Z,8.09
2023-02-21T04:40:15.235Z,8.09
2023-02-21T04:41:15.638Z,7.97
2023-02-21T04:42:15.224Z,8.03
2023-02-21T04:43:15.218Z,8.06
2023-02-21T04:44:15.216Z,8.13
2023-02-21T04:45:15.221Z,8.19
2023-02-21T04:46:15.201Z,8.10
2023-02-21T04:47:15.196Z,8.12
2023-02-21T04:48:15.218Z,8.09
2023-02-21T04:49:15.182Z,8.03
2023-02-21T04:50:15.182Z,8.03
2023-02-21T04:51:15.605Z,8.05
2023-02-21T04:52:15.189Z,8.05
2023-02-21T04:53:15.145Z,8.10
2023-02-21T04:54:15.152Z,8.09
2023-02-21T04:55:15.129Z,8.06
2023-02-21T04:56:15.143Z,8.05
2023-02-21T04:57:15.137Z,7.98
2023-02-21T04:58:15.126Z,7.97
2023-02-21T04:59:15.106Z,7.95
2023-02-21T05:00:15.091Z,8.05
2023-02-21T05:01:15.569Z,8.01
2023-02-21T05:02:15.093Z,7.95
2023-02-21T05:03:15.078Z,8.00
2023-02-21T05:04:15.102Z,7.95
2023-02-21T05:05:15.087Z,7.93
2023-02-21T05:06:15.071Z,8.09
2023-02-21T05:07:15.102Z,7.95
2023-02-21T05:08:15.051Z,7.94
2023-02-21T05:09:15.033Z,8.01
2023-02-21T05:10:15.036Z,8.01
2023-02-21T05:11:15.347Z,8.00
2023-02-21T05:12:15.031Z,8.05
2023-02-21T05:13:15.000Z,7.97
2023-02-21T05:14:15.009Z,8.05
2023-02-21T05:15:15.017Z,8.03
2023-02-21T05:16:15.063Z,8.05
2023-02-21T05:17:14.999Z,7.95
2023-02-21T05:18:15.007Z,8.01
2023-02-21T05:19:14.964Z,7.95
2023-02-21T05:20:14.956Z,7.93
2023-02-21T05:21:15.186Z,7.94
2023-02-21T05:22:14.980Z,7.97
2023-02-21T05:23:14.932Z,7.97
2023-02-21T05:24:14.934Z,7.95
2023-02-21T05:25:14.912Z,7.88
2023-02-21T05:26:14.934Z,7.97
2023-02-21T05:27:14.935Z,8.03
2023-02-21T05:28:14.904Z,7.91
2023-02-21T05:29:14.888Z,7.83
2023-02-21T05:30:14.909Z,7.87
2023-02-21T05:31:15.192Z,7.95
2023-02-21T05:32:14.966Z,7.93
2023-02-21T05:33:14.860Z,7.93
2023-02-21T05:34:14.856Z,7.87
2023-02-21T05:35:14.854Z,7.87
2023-02-21T05:36:14.868Z,7.87
2023-02-21T05:37:14.870Z,7.87
2023-02-21T05:38:14.853Z,8.05
2023-02-21T05:39:14.853Z,7.93
2023-02-21T05:40:14.825Z,7.87
2023-02-21T05:41:15.298Z,7.98
2023-02-21T05:42:14.903Z,8.01
2023-02-21T05:43:14.818Z,7.95
2023-02-21T05:44:14.794Z,7.94
2023-02-21T05:45:14.941Z,8.01
2023-02-21T05:46:14.823Z,8.05
2023-02-21T05:47:14.783Z,8.06
2023-02-21T05:48:14.761Z,7.93
2023-02-21T05:49:14.772Z,7.90
2023-02-21T05:50:14.784Z,7.98
2023-02-21T05:51:15.029Z,8.00
2023-02-21T05:52:14.770Z,8.05
2023-02-21T05:53:14.720Z,8.01
2023-02-21T05:54:14.750Z,7.97
2023-02-21T05:55:14.731Z,7.97
2023-02-21T05:56:14.700Z,7.98
2023-02-21T05:57:14.749Z,7.94
2023-02-21T05:58:14.692Z,8.13
2023-02-21T05:59:14.729Z,8.01
2023-02-21T06:00:14.676Z,8.03
2023-02-21T06:01:15.167Z,8.03
2023-02-21T06:02:14.727Z,8.03
2023-02-21T06:03:14.667Z,8.03
2023-02-21T06:04:14.667Z,7.97
2023-02-21T06:05:14.635Z,8.05
2023-02-21T06:06:14.647Z,8.01
2023-02-21T06:07:14.651Z,7.98
2023-02-21T06:08:14.622Z,8.10
2023-02-21T06:09:14.621Z,8.08
2023-02-21T06:10:14.611Z,8.13
2023-02-21T06:11:14.946Z,8.06
2023-02-21T06:12:14.627Z,8.15
2023-02-21T06:13:14.586Z,8.19
2023-02-21T06:14:17.642Z,8.06
2023-02-21T06:15:15.611Z,7.98
2023-02-21T06:16:14.587Z,8.01
2023-02-21T06:17:14.582Z,7.95
2023-02-21T06:18:14.548Z,8.05
2023-02-21T06:19:14.572Z,8.06
2023-02-21T06:20:14.529Z,8.19
2023-02-21T06:21:14.826Z,8.06
2023-02-21T06:22:14.540Z,8.01
2023-02-21T06:23:14.535Z,8.24
2023-02-21T06:24:14.508Z,8.13
2023-02-21T06:25:14.502Z,8.16
2023-02-21T06:26:14.493Z,8.18
2023-02-21T06:27:14.494Z,8.18
2023-02-21T06:28:14.510Z,8.15
2023-02-21T06:29:14.470Z,8.18
2023-02-21T06:30:14.518Z,8.12
2023-02-21T06:31:14.768Z,8.19
2023-02-21T06:32:14.531Z,8.19
2023-02-21T06:33:14.463Z,8.13
2023-02-21T06:34:14.434Z,8.13
2023-02-21T06:35:14.432Z,8.20
2023-02-21T06:36:14.414Z,8.10
2023-02-21T06:37:14.434Z,8.19
2023-02-21T06:38:14.418Z,8.20
2023-02-21T06:39:14.407Z,8.16
2023-02-21T06:40:14.394Z,8.31
2023-02-21T06:41:14.713Z,8.15
2023-02-21T06:42:14.403Z,8.28
2023-02-21T06:43:14.378Z,8.12
2023-02-21T06:44:14.379Z,8.19
2023-02-21T06:45:14.360Z,8.28
2023-02-21T06:46:14.395Z,8.27
2023-02-21T06:47:14.369Z,8.27
2023-02-21T06:48:14.337Z,8.20
2023-02-21T06:49:14.329Z,8.20
2023-02-21T06:50:14.350Z,8.19
2023-02-21T06:51:14.646Z,8.28
2023-02-21T06:52:14.340Z,8.20
2023-02-21T06:53:14.311Z,8.37
2023-02-21T06:54:14.301Z,8.27
2023-02-21T06:55:14.309Z,8.37
2023-02-21T06:56:14.293Z,8.28
2023-02-21T06:57:14.289Z,8.31
2023-02-21T06:58:14.273Z,8.30
2023-02-21T06:59:14.283Z,8.31
2023-02-21T07:00:14.273Z,8.30
2023-02-21T07:01:14.654Z,8.28
2023-02-21T07:02:14.273Z,8.33
2023-02-21T07:03:14.247Z,8.33
2023-02-21T07:04:14.242Z,8.41
2023-02-21T07:05:14.227Z,8.37
2023-02-21T07:06:14.221Z,8.33
2023-02-21T07:07:14.214Z,8.33
2023-02-21T07:08:15.198Z,8.33
2023-02-21T07:09:14.200Z,8.30
2023-02-21T07:10:14.192Z,8.41
2023-02-21T07:11:14.533Z,8.49
2023-02-21T07:12:14.186Z,8.55
2023-02-21T07:13:14.192Z,8.44
2023-02-21T07:14:14.167Z,8.31
2023-02-21T07:15:14.152Z,8.31
2023-02-21T07:16:14.270Z,8.44
2023-02-21T07:17:14.168Z,8.49
2023-02-21T07:18:14.149Z,8.55
2023-02-21T07:19:14.143Z,8.49
2023-02-21T07:20:14.119Z,8.53
2023-02-21T07:21:14.393Z,8.56
2023-02-21T07:22:14.136Z,8.49
2023-02-21T07:23:14.101Z,8.51
2023-02-21T07:24:14.092Z,8.49
2023-02-21T07:25:14.117Z,8.52
2023-02-21T07:26:14.114Z,8.41
2023-02-21T07:27:14.089Z,8.51
2023-02-21T07:28:14.080Z,8.41
2023-02-21T07:29:14.075Z,8.51
2023-02-21T07:30:14.108Z,8.48
2023-02-21T07:31:14.878Z,8.45
2023-02-21T07:32:14.085Z,8.61
2023-02-21T07:33:14.040Z,8.63
2023-02-21T07:34:14.018Z,8.52
2023-02-21T07:35:14.010Z,8.58
2023-02-21T07:36:14.015Z,8.56
2023-02-21T07:37:14.018Z,8.61
2023-02-21T07:38:13.996Z,8.73
2023-02-21T07:39:13.990Z,8.53
2023-02-21T07:40:13.972Z,8.56
2023-02-21T07:41:14.435Z,8.64
2023-02-21T07:42:14.001Z,8.70
2023-02-21T07:43:13.961Z,8.60
2023-02-21T07:44:13.945Z,8.64
2023-02-21T07:45:13.951Z,8.71
2023-02-21T07:46:13.985Z,8.71
2023-02-21T07:47:13.945Z,8.81
2023-02-21T07:48:13.931Z,8.78
2023-02-21T07:49:13.921Z,8.69
2023-02-21T07:50:13.916Z,8.67
2023-02-21T07:51:14.362Z,8.58
2023-02-21T07:52:13.894Z,8.76
2023-02-21T07:53:13.909Z,8.79
2023-02-21T07:54:13.906Z,8.74
2023-02-21T07:55:13.880Z,8.87
2023-02-21T07:56:13.869Z,8.79
2023-02-21T07:57:13.880Z,8.84
2023-02-21T07:58:13.877Z,8.89
2023-02-21T07:59:13.856Z,8.81
2023-02-21T08:00:13.844Z,8.97
2023-02-21T08:01:14.125Z,8.85
2023-02-21T08:02:13.827Z,8.97
2023-02-21T08:03:13.860Z,8.91
2023-02-21T08:04:13.841Z,8.81
2023-02-21T08:05:13.824Z,8.94
2023-02-21T08:06:13.808Z,8.99
2023-02-21T08:07:13.823Z,9.00
2023-02-21T08:08:13.800Z,8.85
2023-02-21T08:09:13.786Z,8.99
2023-02-21T08:10:13.782Z,8.91
2023-02-21T08:11:14.179Z,9.10
2023-02-21T08:12:13.760Z,9.25
2023-02-21T08:13:13.781Z,9.13
2023-02-21T08:14:13.737Z,9.06
2023-02-21T08:15:13.740Z,9.14
2023-02-21T08:16:13.786Z,9.16
2023-02-21T08:17:13.739Z,9.26
2023-02-21T08:18:13.735Z,9.29
2023-02-21T08:19:13.717Z,9.32
2023-02-21T08:20:13.714Z,9.36
2023-02-21T08:21:13.958Z,9.59
2023-02-21T08:22:13.682Z,9.69
2023-02-21T08:23:13.722Z,9.59
2023-02-21T08:24:13.665Z,9.72
2023-02-21T08:25:13.656Z,9.87
2023-02-21T08:26:13.656Z,10.02
2023-02-21T08:27:13.675Z,9.94
2023-02-21T08:28:13.663Z,9.87
2023-02-21T08:29:13.628Z,9.86
2023-02-21T08:30:13.710Z,9.92
2023-02-21T08:31:13.918Z,10.10
2023-02-21T08:32:13.641Z,10.17
2023-02-21T08:33:13.698Z,10.04
2023-02-21T08:34:13.606Z,10.02
2023-02-21T08:35:13.612Z,9.98
2023-02-21T08:36:13.599Z,9.87
2023-02-21T08:37:13.595Z,9.91
2023-02-21T08:38:13.593Z,9.84
2023-02-21T08:39:13.570Z,9.99
2023-02-21T08:40:13.581Z,10.16
2023-02-21T08:41:13.882Z,10.04
2023-02-21T08:42:13.553Z,10.07
2023-02-21T08:43:13.554Z,10.01
2023-02-21T08:44:13.576Z,10.22
2023-02-21T08:45:13.520Z,10.20
2023-02-21T08:46:13.558Z,10.10
2023-02-21T08:47:13.525Z,10.15
2023-02-21T08:48:13.528Z,10.09
2023-02-21T08:49:13.540Z,9.98
2023-02-21T08:50:13.489Z,10.10
2023-02-21T08:51:13.957Z,10.26
2023-02-21T08:52:13.478Z,10.10
2023-02-21T08:53:15.273Z,10.09
2023-02-21T08:54:14.471Z,10.28
2023-02-21T08:55:13.452Z,10.17
2023-02-21T08:56:13.473Z,10.15
2023-02-21T08:57:13.455Z,10.20
2023-02-21T08:58:13.466Z,10.26
2023-02-21T08:59:13.474Z,10.26
2023-02-21T09:00:13.429Z,10.34
2023-02-21T09:01:13.866Z,10.30
2023-02-21T09:02:13.443Z,10.34
2023-02-21T09:03:13.448Z,10.37
2023-02-21T09:04:13.401Z,10.35
2023-02-21T09:05:13.416Z,10.35
2023-02-21T09:06:13.389Z,10.46
2023-02-21T09:07:13.380Z,10.53
2023-02-21T09:08:13.420Z,10.54
2023-02-21T09:09:13.396Z,10.35
2023-02-21T09:10:13.364Z,10.33
2023-02-21T09:11:13.786Z,10.34
2023-02-21T09:12:13.354Z,10.57
2023-02-21T09:13:13.365Z,10.63
2023-02-21T09:14:13.337Z,10.42
2023-02-21T09:15:13.327Z,10.40
2023-02-21T09:16:13.362Z,10.74
2023-02-21T09:17:13.351Z,10.72
2023-02-21T09:18:13.331Z,10.67
2023-02-21T09:19:13.317Z,10.75
2023-02-21T09:20:13.292Z,10.67
2023-02-21T09:21:13.596Z,10.87
2023-02-21T09:22:13.284Z,10.97
2023-02-21T09:23:13.295Z,10.97
2023-02-21T09:24:13.290Z,11.12
2023-02-21T09:25:13.253Z,11.40
2023-02-21T09:26:13.269Z,11.27
2023-02-21T09:27:13.252Z,11.10
2023-02-21T09:28:13.259Z,10.99
2023-02-21T09:29:13.242Z,10.93
2023-02-21T09:30:13.266Z,10.94
2023-02-21T09:31:13.779Z,10.93
2023-02-21T09:32:14.334Z,10.99
2023-02-21T09:33:13.242Z,10.89
2023-02-21T09:34:13.215Z,10.86
2023-02-21T09:35:13.188Z,10.81
2023-02-21T09:36:13.195Z,10.94
2023-02-21T09:37:13.179Z,11.05
2023-02-21T09:38:13.221Z,11.19
2023-02-21T09:39:13.147Z,11.25
2023-02-21T09:40:14.147Z,11.17
2023-02-21T09:41:13.599Z,11.25
2023-02-21T09:42:13.146Z,11.23
2023-02-21T09:43:13.144Z,11.17
2023-02-21T09:44:13.164Z,11.19
2023-02-21T09:45:13.136Z,11.08
2023-02-21T09:46:13.108Z,11.14
2023-02-21T09:47:13.104Z,11.19
2023-02-21T09:48:13.128Z,11.19
2023-02-21T09:49:13.100Z,11.27
2023-02-21T09:50:13.356Z,11.36
2023-02-21T09:51:14.441Z,11.35
2023-02-21T09:52:13.076Z,11.35
2023-02-21T09:53:13.087Z,11.19
2023-02-21T09:54:13.063Z,11.25
2023-02-21T09:55:13.059Z,11.26
2023-02-21T09:56:13.046Z,11.30
2023-02-21T09:57:13.053Z,11.30
2023-02-21T09:58:13.078Z,11.44
2023-02-21T09:59:13.033Z,11.59
2023-02-21T10:00:13.017Z,11.54
2023-02-21T10:01:13.445Z,11.66
2023-02-21T10:02:13.014Z,11.77
2023-02-21T10:03:13.013Z,11.72
2023-02-21T10:04:13.010Z,11.70
2023-02-21T10:05:12.992Z,11.55
2023-02-21T10:06:12.988Z,11.47
2023-02-21T10:07:12.968Z,11.60
2023-02-21T10:08:12.965Z,11.59
2023-02-21T10:09:12.955Z,11.59
2023-02-21T10:10:13.940Z,11.70
2023-02-21T10:11:13.251Z,12.00
2023-02-21T10:12:12.950Z,12.24
2023-02-21T10:13:12.938Z,11.88
2023-02-21T10:14:12.927Z,12.00
2023-02-21T10:15:12.900Z,12.06
2023-02-21T10:16:12.915Z,11.78
2023-02-21T10:17:12.889Z,11.55
2023-02-21T10:18:12.979Z,11.72
2023-02-21T10:19:12.903Z,11.77
2023-02-21T10:20:12.880Z,11.63
2023-02-21T10:21:13.037Z,11.72
2023-02-21T10:22:12.892Z,11.80
2023-02-21T10:23:12.865Z,11.78
2023-02-21T10:24:12.841Z,11.66
2023-02-21T10:25:12.848Z,11.63
2023-02-21T10:26:12.833Z,11.66
2023-02-21T10:27:12.827Z,11.45
2023-02-21T10:28:12.850Z,11.43
2023-02-21T10:29:12.821Z,11.41
2023-02-21T10:30:12.866Z,11.50
2023-02-21T10:31:12.948Z,11.52
2023-02-21T10:32:12.833Z,11.54
2023-02-21T10:33:12.824Z,11.69
2023-02-21T10:34:12.774Z,11.62
2023-02-21T10:35:12.768Z,11.80
2023-02-21T10:36:12.755Z,11.81
2023-02-21T10:37:12.790Z,11.77
2023-02-21T10:38:12.765Z,11.87
2023-02-21T10:39:12.735Z,11.95
2023-02-21T10:40:12.752Z,12.06
2023-02-21T10:41:12.925Z,12.17
2023-02-21T10:42:12.725Z,12.18
2023-02-21T10:43:12.765Z,12.21
2023-02-21T10:44:12.712Z,12.13
2023-02-21T10:45:12.720Z,11.84
2023-02-21T10:46:12.820Z,11.78
2023-02-21T10:47:12.683Z,11.62
2023-02-21T10:48:12.694Z,11.57
2023-02-21T10:49:12.682Z,11.69
2023-02-21T10:50:12.661Z,11.68
2023-02-21T10:51:12.773Z,11.63
2023-02-21T10:52:12.656Z,11.52
2023-02-21T10:53:12.721Z,11.69
2023-02-21T10:54:12.632Z,11.65
2023-02-21T10:55:26.378Z,11.51
2023-02-21T10:56:14.970Z,11.45
2023-02-21T10:57:12.607Z,11.37
2023-02-21T10:58:12.640Z,11.37
2023-02-21T10:59:12.592Z,11.48
2023-02-21T11:00:12.589Z,11.48
2023-02-21T11:01:13.298Z,11.60
2023-02-21T11:02:12.589Z,11.44
2023-02-21T11:03:12.753Z,11.37
2023-02-21T11:04:12.588Z,11.44
2023-02-21T11:05:12.556Z,11.57
2023-02-21T11:06:12.554Z,11.68
2023-02-21T11:07:12.600Z,11.55
2023-02-21T11:08:12.576Z,11.57
2023-02-21T11:09:12.525Z,11.55
2023-02-21T11:10:12.542Z,11.59
2023-02-21T11:11:12.734Z,11.55
2023-02-21T11:12:12.499Z,11.35
2023-02-21T11:13:12.532Z,11.47
2023-02-21T11:14:12.487Z,11.60
2023-02-21T11:15:12.478Z,11.70
2023-02-21T11:16:12.580Z,11.63
2023-02-21T11:17:14.169Z,11.60
2023-02-21T11:18:13.682Z,11.69
2023-02-21T11:19:12.469Z,11.55
2023-02-21T11:20:12.449Z,11.69
2023-02-21T11:21:12.635Z,11.77
2023-02-21T11:22:12.445Z,11.54
2023-02-21T11:23:12.468Z,11.51
2023-02-21T11:24:12.432Z,11.54
2023-02-21T11:25:12.443Z,11.63
2023-02-21T11:26:12.402Z,11.55
2023-02-21T11:27:12.411Z,11.60
2023-02-21T11:28:12.427Z,11.59
2023-02-21T11:29:12.394Z,11.52
2023-02-21T11:30:12.394Z,11.50
2023-02-21T11:31:12.566Z,11.68
2023-02-21T11:32:12.427Z,11.68
2023-02-21T11:33:12.381Z,11.69
2023-02-21T11:34:12.393Z,11.72
2023-02-21T11:35:12.353Z,11.62
2023-02-21T11:36:12.352Z,11.72
2023-02-21T11:37:12.339Z,11.84
2023-02-21T11:38:12.342Z,11.95
2023-02-21T11:39:12.337Z,11.97
2023-02-21T11:40:12.329Z,12.13
2023-02-21T11:41:12.548Z,12.10
2023-02-21T11:42:12.294Z,12.02
2023-02-21T11:43:12.298Z,11.95
2023-02-21T11:44:12.301Z,12.17
2023-02-21T11:45:12.288Z,12.06
2023-02-21T11:46:12.316Z,11.86
2023-02-21T11:47:12.273Z,11.91
2023-02-21T11:48:12.283Z,11.97
2023-02-21T11:49:12.280Z,12.07
2023-02-21T11:50:12.283Z,12.25
2023-02-21T11:51:12.240Z,12.25
2023-02-21T11:52:12.240Z,12.13
2023-02-21T11:53:12.253Z,11.95
2023-02-21T11:54:12.244Z,11.91
2023-02-21T11:55:12.217Z,11.83
2023-02-21T11:56:12.206Z,11.87
2023-02-21T11:57:12.191Z,11.87
2023-02-21T11:58:12.199Z,12.00
2023-02-21T11:59:12.213Z,12.04
2023-02-21T12:00:12.202Z,11.91
2023-02-21T12:01:12.499Z,11.95
2023-02-21T12:02:12.199Z,12.09
2023-02-21T12:03:12.157Z,12.12
2023-02-21T12:04:12.201Z,12.18
2023-02-21T12:05:12.167Z,12.13
2023-02-21T12:06:12.207Z,12.09
2023-02-21T12:07:12.221Z,12.09
2023-02-21T12:08:12.130Z,12.13
2023-02-21T12:09:12.124Z,12.04
2023-02-21T12:10:12.125Z,11.99
2023-02-21T12:11:12.109Z,12.02
2023-02-21T12:12:12.099Z,12.04
2023-02-21T12:13:12.122Z,12.03
2023-02-21T12:14:12.088Z,12.10
2023-02-21T12:15:12.062Z,11.83
2023-02-21T12:16:12.117Z,11.78
2023-02-21T12:17:14.702Z,11.59
2023-02-21T12:18:12.064Z,11.68
2023-02-21T12:19:12.066Z,11.70
2023-02-21T12:20:12.030Z,11.86
2023-02-21T12:21:12.042Z,11.97
2023-02-21T12:22:12.053Z,11.95
2023-02-21T12:23:12.018Z,11.81
2023-02-21T12:24:12.041Z,11.90
2023-02-21T12:25:12.000Z,11.83
2023-02-21T12:26:11.996Z,11.91
2023-02-21T12:27:12.023Z,11.69
2023-02-21T12:28:13.797Z,11.72
2023-02-21T12:29:12.972Z,11.80
2023-02-21T12:30:12.091Z,11.81
2023-02-21T12:31:12.066Z,11.91
2023-02-21T12:32:12.022Z,11.73
2023-02-21T12:33:11.977Z,11.70
2023-02-21T12:34:11.973Z,11.73
2023-02-21T12:35:11.935Z,11.83
2023-02-21T12:36:11.936Z,12.06
2023-02-21T12:37:11.914Z,12.04
2023-02-21T12:38:11.912Z,11.87
2023-02-21T12:39:11.948Z,12.04
2023-02-21T12:40:11.943Z,12.03
2023-02-21T12:41:12.179Z,11.83
2023-02-21T12:42:11.895Z,11.68
2023-02-21T12:43:11.885Z,11.73
2023-02-21T12:44:11.901Z,11.83
2023-02-21T12:45:11.869Z,11.77
2023-02-21T12:46:11.852Z,11.72
2023-02-21T12:47:11.881Z,11.86
2023-02-21T12:48:11.862Z,11.87
2023-02-21T12:49:11.871Z,11.84
2023-02-21T12:50:11.866Z,11.86
2023-02-21T12:51:11.834Z,11.95
2023-02-21T12:52:11.834Z,11.94
2023-02-21T12:53:11.828Z,12.06
2023-02-21T12:54:11.837Z,12.00
2023-02-21T12:55:11.800Z,11.97
2023-02-21T12:56:11.807Z,11.99
2023-02-21T12:57:11.788Z,12.03
2023-02-21T12:58:11.799Z,11.97
2023-02-21T12:59:11.858Z,11.88
2023-02-21T13:00:11.939Z,11.84
2023-02-21T13:01:11.774Z,11.95
2023-02-21T13:02:11.747Z,11.94
2023-02-21T13:03:11.785Z,11.83
2023-02-21T13:04:11.766Z,11.97
2023-02-21T13:05:11.747Z,12.03
2023-02-21T13:06:11.723Z,12.04
2023-02-21T13:07:11.715Z,12.12
2023-02-21T13:08:11.709Z,12.03
2023-02-21T13:09:11.722Z,12.07